Time;durP1;ratioP1;P1;durP2;ratioP2;P2;SDS_P1;SDS_P2;PMS_P1;PMS_P2;Temp;Humidity;BMP_temperature;BMP_pressure;BME280_temperature;BME280_humidity;BME280_pressure;Samples;Min_cycle;Max_cycle;Signal;HPM_P1;HPM_P2
2023/07/14 00:01:30;;;;;;;10.57;7.15;;;;;;;16.99;100.00;101609.09;5010423;28;20080;-55
2023/07/14 00:03:59;;;;;;;12.93;7.10;;;;;;;16.99;100.00;101603.78;5008174;28;20046;-59
2023/07/14 00:06:27;;;;;;;13.00;7.38;;;;;;;17.06;100.00;101602.31;5011256;28;20092;-58
2023/07/14 00:08:55;;;;;;;13.60;7.47;;;;;;;17.05;100.00;101603.28;5009880;28;20120;-59
2023/07/14 00:11:25;;;;;;;12.43;7.38;;;;;;;17.07;100.00;101600.53;5010928;28;20496;-58
2023/07/14 00:13:54;;;;;;;13.18;7.15;;;;;;;17.03;100.00;101605.22;5010031;28;20050;-55
2023/07/14 00:16:25;;;;;;;11.85;7.03;;;;;;;17.05;100.00;101599.78;5011840;28;20054;-56
2023/07/14 00:18:53;;;;;;;11.00;7.20;;;;;;;17.04;100.00;101601.59;5014169;28;20069;-55
2023/07/14 00:21:23;;;;;;;11.55;7.90;;;;;;;17.07;100.00;101600.53;5011362;28;20100;-55
2023/07/14 00:23:57;;;;;;;10.88;6.97;;;;;;;17.10;100.00;101596.75;5009546;28;20060;-59
2023/07/14 00:26:27;;;;;;;10.70;6.88;;;;;;;17.08;100.00;101606.66;5010543;28;20042;-59
2023/07/14 00:28:55;;;;;;;10.45;6.57;;;;;;;17.06;100.00;101593.50;5010957;28;20092;-60
2023/07/14 00:31:23;;;;;;;11.73;7.07;;;;;;;17.10;100.00;101592.28;5011203;28;20112;-59
2023/07/14 00:33:54;;;;;;;10.98;6.55;;;;;;;17.09;100.00;101589.75;5009138;28;20061;-60
2023/07/14 00:36:23;;;;;;;12.65;6.38;;;;;;;17.09;100.00;101593.25;5010238;28;20797;-58
2023/07/14 00:38:52;;;;;;;10.43;6.10;;;;;;;17.14;100.00;101591.06;5009149;28;20044;-59
2023/07/14 00:41:23;;;;;;;9.55;5.53;;;;;;;17.09;100.00;101593.25;5011625;28;20046;-58
2023/07/14 00:43:53;;;;;;;8.13;4.90;;;;;;;17.07;100.00;101584.56;5010613;28;20049;-58
2023/07/14 00:46:26;;;;;;;10.40;5.35;;;;;;;17.06;100.00;101581.06;5009240;28;20046;-57
2023/07/14 00:48:58;;;;;;;9.23;5.13;;;;;;;17.01;100.00;101588.53;5009268;28;20054;-58
2023/07/14 00:51:30;;;;;;;10.27;4.60;;;;;;;17.09;100.00;101585.28;5010059;28;20048;-58
2023/07/14 00:53:58;;;;;;;9.80;5.03;;;;;;;17.04;100.00;101585.66;5009459;28;20104;-59
2023/07/14 00:56:35;;;;;;;9.13;5.03;;;;;;;17.15;100.00;101590.09;5011269;28;20556;-55
2023/07/14 00:59:13;;;;;;;10.32;4.75;;;;;;;17.06;100.00;101577.56;5009840;28;20055;-58
2023/07/14 01:02:14;;;;;;;9.55;4.63;;;;;;;16.99;100.00;101581.69;5012975;28;20054;-58
2023/07/14 01:04:45;;;;;;;11.68;4.95;;;;;;;16.82;100.00;101575.88;5013135;28;20041;-58
2023/07/14 01:07:16;;;;;;;8.02;4.85;;;;;;;16.84;100.00;101567.81;5010551;28;20116;-58
2023/07/14 01:09:46;;;;;;;7.85;4.72;;;;;;;16.87;100.00;101568.38;5008797;28;20069;-58
2023/07/14 01:12:19;;;;;;;7.95;4.80;;;;;;;16.89;100.00;101570.94;5009513;28;20050;-58
2023/07/14 01:14:53;;;;;;;9.63;4.53;;;;;;;16.89;100.00;101574.47;5008383;28;20058;-60
2023/07/14 01:17:23;;;;;;;8.10;4.25;;;;;;;16.83;100.00;101576.72;5008980;28;20077;-58
2023/07/14 01:19:54;;;;;;;10.20;4.50;;;;;;;16.83;100.00;101574.06;5007223;28;20144;-58
2023/07/14 01:22:30;;;;;;;8.68;4.43;;;;;;;16.73;100.00;101572.16;5009174;28;20119;-58
2023/07/14 01:25:10;;;;;;;8.23;4.78;;;;;;;16.68;100.00;101576.97;5008517;28;20132;-58
2023/07/14 01:27:40;;;;;;;10.80;4.47;;;;;;;16.64;100.00;101559.59;5008806;28;20038;-58
2023/07/14 01:30:10;;;;;;;7.75;4.45;;;;;;;16.65;100.00;101563.94;5009325;28;20505;-59
2023/07/14 01:32:42;;;;;;;8.40;4.60;;;;;;;16.84;100.00;101573.94;5007872;28;20061;-58
2023/07/14 01:35:12;;;;;;;9.57;5.45;;;;;;;16.71;100.00;101568.78;5008651;28;20378;-58
2023/07/14 01:37:41;;;;;;;9.95;5.10;;;;;;;16.66;100.00;101560.34;5010004;28;20114;-58
2023/07/14 01:40:13;;;;;;;9.98;5.40;;;;;;;16.58;100.00;101562.75;5008909;28;20050;-58
2023/07/14 01:42:46;;;;;;;9.40;5.33;;;;;;;16.64;100.00;101558.78;5008270;28;20485;-58
2023/07/14 01:45:16;;;;;;;10.35;4.90;;;;;;;16.64;100.00;101556.13;5008928;28;20050;-58
2023/07/14 01:47:48;;;;;;;9.77;5.03;;;;;;;16.58;100.00;101549.47;5012117;28;20045;-58
2023/07/14 01:50:21;;;;;;;9.32;5.43;;;;;;;16.56;100.00;101556.72;5012133;28;20046;-58
2023/07/14 01:52:54;;;;;;;11.63;6.35;;;;;;;16.56;100.00;101556.72;5008943;28;20121;-58
2023/07/14 01:55:25;;;;;;;11.55;7.32;;;;;;;16.55;100.00;101552.34;5008754;28;20517;-58
2023/07/14 01:57:57;;;;;;;13.40;6.18;;;;;;;16.55;100.00;101549.69;5012194;28;20088;-58
2023/07/14 02:00:27;;;;;;;8.85;5.82;;;;;;;16.55;100.00;101544.41;5012399;28;20128;-58
2023/07/14 02:02:57;;;;;;;9.38;5.85;;;;;;;16.60;100.00;101550.19;5009254;28;20080;-58
2023/07/14 02:05:31;;;;;;;10.90;6.05;;;;;;;16.51;100.00;101542.94;5008771;28;20559;-58
2023/07/14 02:08:07;;;;;;;11.20;7.43;;;;;;;16.36;100.00;101548.53;5008094;28;20057;-58
2023/07/14 02:10:36;;;;;;;10.88;7.45;;;;;;;16.42;100.00;101538.41;5008426;28;20054;-57
2023/07/14 02:13:06;;;;;;;12.25;7.30;;;;;;;16.44;100.00;101537.28;5008508;28;20057;-59
2023/07/14 02:15:37;;;;;;;13.35;9.18;;;;;;;16.42;100.00;101525.94;5007765;28;20065;-58
2023/07/14 02:18:06;;;;;;;12.07;8.23;;;;;;;16.36;100.00;101532.59;5006476;28;20136;-58
2023/07/14 02:20:36;;;;;;;14.88;8.82;;;;;;;16.35;100.00;101530.91;5007632;28;20507;-59
2023/07/14 02:23:10;;;;;;;13.10;9.43;;;;;;;16.22;100.00;101543.44;5011801;28;20505;-59
2023/07/14 02:25:43;;;;;;;12.68;9.25;;;;;;;16.14;100.00;101533.44;5009910;28;20124;-58
2023/07/14 02:28:13;;;;;;;14.18;10.05;;;;;;;16.11;100.00;101532.81;5008000;28;20650;-59
2023/07/14 02:30:46;;;;;;;15.07;9.13;;;;;;;16.10;100.00;101533.78;5007630;28;20050;-58
2023/07/14 02:33:23;;;;;;;12.82;9.38;;;;;;;16.10;100.00;101529.34;5008048;28;20789;-58
2023/07/14 02:35:58;;;;;;;17.50;9.90;;;;;;;16.09;100.00;101535.59;4995854;28;20456;-58
2023/07/14 02:38:26;;;;;;;13.75;9.70;;;;;;;16.13;100.00;101533.53;5010063;28;20145;-58
2023/07/14 02:40:57;;;;;;;13.18;8.57;;;;;;;16.12;100.00;101531.88;5008067;28;20145;-58
2023/07/14 02:43:27;;;;;;;13.23;9.50;;;;;;;16.07;100.00;101532.22;5007170;28;20050;-58
2023/07/14 02:45:57;;;;;;;13.40;9.35;;;;;;;16.08;100.00;101533.06;5008706;28;20382;-58
2023/07/14 02:48:30;;;;;;;11.68;9.15;;;;;;;15.99;100.00;101526.66;5007524;28;20473;-58
2023/07/14 02:50:59;;;;;;;14.30;8.88;;;;;;;16.07;100.00;101534.03;5011564;28;20125;-56
2023/07/14 02:53:26;;;;;;;14.02;9.85;;;;;;;16.05;100.00;101529.69;5010463;28;20108;-56
2023/07/14 02:55:54;;;;;;;15.82;9.68;;;;;;;15.99;100.00;101534.63;5011617;28;20046;-56
2023/07/14 02:58:23;;;;;;;14.15;9.43;;;;;;;15.94;100.00;101536.78;5020539;28;20057;-56
2023/07/14 03:00:53;;;;;;;13.27;9.43;;;;;;;15.86;100.00;101530.25;5025085;28;20049;-55
2023/07/14 03:03:21;;;;;;;17.17;10.32;;;;;;;15.84;100.00;101536.63;5026978;28;20045;-56
2023/07/14 03:05:51;;;;;;;11.15;9.75;;;;;;;15.88;100.00;101531.00;5028060;28;20041;-56
2023/07/14 03:08:20;;;;;;;15.02;10.65;;;;;;;15.84;100.00;101520.72;5023736;28;20057;-56
2023/07/14 03:10:55;;;;;;;14.38;10.27;;;;;;;15.82;100.00;101527.97;5029467;28;20058;-55
2023/07/14 03:13:24;;;;;;;15.50;11.15;;;;;;;15.87;100.00;101523.16;5029091;28;20096;-56
2023/07/14 03:15:53;;;;;;;14.82;11.23;;;;;;;15.92;100.00;101520.16;5030992;28;20037;-56
2023/07/14 03:18:21;;;;;;;14.70;10.52;;;;;;;15.87;100.00;101517.84;5023087;28;20536;-56
2023/07/14 03:20:55;;;;;;;14.15;10.65;;;;;;;15.94;100.00;101523.50;5018682;28;20037;-54
2023/07/14 03:23:23;;;;;;;16.80;11.38;;;;;;;15.93;100.00;101519.19;5030180;28;20073;-55
2023/07/14 03:25:53;;;;;;;14.77;11.48;;;;;;;15.87;100.00;101518.69;5030573;28;20041;-56
2023/07/14 03:28:21;;;;;;;13.52;10.65;;;;;;;15.84;100.00;101515.41;5027721;28;20060;-55
2023/07/14 03:30:50;;;;;;;13.27;10.93;;;;;;;15.89;100.00;101521.22;5010651;28;20119;-54
2023/07/14 03:33:20;;;;;;;15.13;11.02;;;;;;;15.93;100.00;101519.19;5010228;28;20061;-55
2023/07/14 03:35:48;;;;;;;15.48;11.55;;;;;;;15.93;100.00;101511.22;5010832;28;20057;-56
2023/07/14 03:38:16;;;;;;;12.93;10.50;;;;;;;15.92;100.00;101512.19;5011528;28;20050;-56
2023/07/14 03:40:45;;;;;;;14.98;11.15;;;;;;;15.95;100.00;101515.47;5014699;28;20505;-54
2023/07/14 03:43:13;;;;;;;15.55;11.40;;;;;;;15.98;100.00;101524.97;5014712;28;20635;-53
2023/07/14 03:45:41;;;;;;;16.13;11.55;;;;;;;16.01;100.00;101519.44;5014684;28;20088;-54
2023/07/14 03:48:10;;;;;;;14.88;10.80;;;;;;;16.09;100.00;101521.47;5014522;28;20050;-56
2023/07/14 03:50:39;;;;;;;14.27;10.32;;;;;;;16.07;100.00;101516.28;5013407;28;20069;-57
2023/07/14 03:53:07;;;;;;;18.27;11.15;;;;;;;16.01;100.00;101522.09;5010505;28;20841;-56
2023/07/14 03:55:36;;;;;;;14.27;10.43;;;;;;;15.98;100.00;101514.34;5010830;28;20050;-55
2023/07/14 03:58:04;;;;;;;13.35;9.23;;;;;;;16.07;100.00;101512.81;5010523;28;20386;-56
2023/07/14 04:00:35;;;;;;;15.00;10.15;;;;;;;16.01;100.00;101511.47;5010031;28;20061;-56
2023/07/14 04:03:03;;;;;;;12.55;9.88;;;;;;;15.98;100.00;101517.00;5011153;28;20053;-56
2023/07/14 04:05:32;;;;;;;12.88;9.57;;;;;;;15.99;100.00;101503.66;5014535;28;20061;-56
2023/07/14 04:08:03;;;;;;;11.90;8.93;;;;;;;15.97;100.00;101510.03;5014217;28;20080;-56
2023/07/14 04:10:31;;;;;;;13.07;9.10;;;;;;;16.09;100.00;101500.25;5014207;28;20107;-56
2023/07/14 04:12:59;;;;;;;13.90;9.48;;;;;;;16.06;100.00;101511.97;5009227;28;20042;-55
2023/07/14 04:15:28;;;;;;;16.15;9.00;;;;;;;16.00;100.00;101510.63;5011530;28;20068;-57
2023/07/14 04:17:59;;;;;;;12.93;8.65;;;;;;;16.00;100.00;101507.97;5011892;28;20374;-56
2023/07/14 04:20:28;;;;;;;12.88;8.45;;;;;;;16.01;100.00;101517.63;5010752;28;20041;-56
2023/07/14 04:22:57;;;;;;;13.98;8.52;;;;;;;16.03;100.00;101515.72;5012322;28;20650;-57
2023/07/14 04:25:27;;;;;;;15.30;8.48;;;;;;;16.07;100.00;101513.63;5013966;28;20056;-55
2023/07/14 04:27:56;;;;;;;15.63;7.72;;;;;;;16.10;100.00;101513.41;5011001;28;20042;-56
2023/07/14 04:30:24;;;;;;;13.38;8.73;;;;;;;16.05;100.00;101505.81;5010178;28;20404;-56
2023/07/14 04:32:54;;;;;;;12.35;9.05;;;;;;;16.01;100.00;101504.34;5011149;28;20046;-56
2023/07/14 04:35:22;;;;;;;14.23;8.57;;;;;;;15.96;100.00;101516.28;5018859;28;20520;-57
2023/07/14 04:37:50;;;;;;;13.60;8.80;;;;;;;15.98;100.00;101507.25;5022036;28;20129;-57
2023/07/14 04:40:18;;;;;;;14.13;9.45;;;;;;;15.96;100.00;101501.22;5013309;28;20355;-56
2023/07/14 04:42:54;;;;;;;11.40;8.13;;;;;;;15.90;100.00;101504.34;5015004;28;20123;-56
2023/07/14 04:45:22;;;;;;;13.75;8.25;;;;;;;15.92;100.00;101502.41;5028156;28;20041;-56
2023/07/14 04:47:52;;;;;;;14.10;8.77;;;;;;;15.91;100.00;101506.06;5021792;28;20041;-59
2023/07/14 04:50:20;;;;;;;13.00;8.93;;;;;;;15.94;100.00;101497.84;5032843;28;20068;-59
2023/07/14 04:52:48;;;;;;;13.88;8.27;;;;;;;15.97;100.00;101502.06;5028936;28;20049;-59
2023/07/14 04:55:16;;;;;;;12.73;8.98;;;;;;;16.02;100.00;101500.75;5027513;28;20053;-59
2023/07/14 04:57:47;;;;;;;14.20;8.93;;;;;;;16.03;100.00;101499.78;5025114;28;20056;-59
2023/07/14 05:00:20;;;;;;;14.02;8.98;;;;;;;16.07;100.00;101494.22;5018773;28;20045;-59
2023/07/14 05:02:48;;;;;;;15.23;9.18;;;;;;;16.12;100.00;101492.06;5012055;28;20057;-59
2023/07/14 05:05:21;;;;;;;13.77;9.52;;;;;;;16.13;100.00;101493.75;5012198;28;20058;-59
2023/07/14 05:07:49;;;;;;;15.38;9.48;;;;;;;16.14;100.00;101487.47;5012978;28;20052;-59
2023/07/14 05:10:18;;;;;;;16.58;9.75;;;;;;;16.12;100.00;101484.94;5012895;28;20456;-59
2023/07/14 05:12:47;;;;;;;12.32;8.82;;;;;;;16.19;100.00;101487.97;5010099;28;20509;-59
2023/07/14 05:15:15;;;;;;;14.82;9.10;;;;;;;16.27;100.00;101490.84;5007427;28;20141;-59
2023/07/14 05:17:45;;;;;;;12.68;9.43;;;;;;;16.33;100.00;101490.38;5012782;28;20505;-60
2023/07/14 05:20:15;;;;;;;16.52;9.90;;;;;;;16.36;100.00;101487.47;5011826;28;20509;-59
2023/07/14 05:22:45;;;;;;;13.35;9.13;;;;;;;16.37;100.00;101486.50;5008414;28;20104;-59
2023/07/14 05:25:16;;;;;;;13.02;8.70;;;;;;;16.43;100.00;101489.63;5008477;28;20069;-59
2023/07/14 05:27:45;;;;;;;12.15;8.05;;;;;;;16.52;100.00;101488.91;5008735;28;20498;-59
2023/07/14 05:30:15;;;;;;;12.63;8.32;;;;;;;16.59;100.00;101494.56;5012009;28;20048;-59
2023/07/14 05:32:45;;;;;;;11.70;8.40;;;;;;;16.61;100.00;101485.50;4998776;28;20062;-59
2023/07/14 05:35:15;;;;;;;16.15;8.85;;;;;;;16.72;100.00;101485.47;5013273;28;20077;-59
2023/07/14 05:37:44;;;;;;;14.27;8.35;;;;;;;16.75;100.00;101492.34;5007861;28;20079;-59
2023/07/14 05:40:15;;;;;;;13.30;8.05;;;;;;;16.80;100.00;101484.84;5020987;28;20107;-59
2023/07/14 05:42:43;;;;;;;14.02;8.30;;;;;;;16.79;100.00;101484.97;5028118;28;20088;-59
2023/07/14 05:45:13;;;;;;;14.68;8.68;;;;;;;16.80;100.00;101490.16;5025841;28;20045;-59
2023/07/14 05:47:43;;;;;;;13.77;8.95;;;;;;;16.83;100.00;101481.94;5007890;28;20058;-59
2023/07/14 05:50:13;;;;;;;12.15;8.82;;;;;;;16.88;100.00;101481.59;5010284;28;20381;-59
2023/07/14 05:52:41;;;;;;;13.68;9.18;;;;;;;16.98;100.00;101479.03;5012352;28;20099;-60
2023/07/14 05:55:09;;;;;;;14.55;8.50;;;;;;;17.06;100.00;101493.38;5009052;28;20061;-60
2023/07/14 05:57:38;;;;;;;14.18;8.80;;;;;;;17.11;100.00;101479.72;5008058;28;20049;-59
2023/07/14 06:00:13;;;;;;;13.25;8.95;;;;;;;17.18;100.00;101482.72;5008080;28;20041;-59
2023/07/14 06:02:42;;;;;;;14.95;9.25;;;;;;;17.26;100.00;101487.38;5007550;28;20046;-58
2023/07/14 06:05:11;;;;;;;12.60;9.43;;;;;;;17.27;100.00;101484.56;5008373;28;20053;-58
2023/07/14 06:07:41;;;;;;;13.02;9.10;;;;;;;17.17;100.00;101487.16;5007482;28;20165;-58
2023/07/14 06:10:11;;;;;;;13.75;9.15;;;;;;;17.20;100.00;101483.41;5008561;28;20461;-58
2023/07/14 06:12:39;;;;;;;13.65;8.32;;;;;;;17.43;100.00;101478.81;5011965;28;20053;-58
2023/07/14 06:15:08;;;;;;;12.73;8.77;;;;;;;17.47;100.00;101479.41;5009631;28;20397;-59
2023/07/14 06:17:38;;;;;;;13.25;8.60;;;;;;;17.47;100.00;101474.94;5007350;28;20457;-59
2023/07/14 06:20:08;;;;;;;14.38;8.57;;;;;;;17.57;100.00;101475.00;5013825;28;20401;-59
2023/07/14 06:22:36;;;;;;;13.15;8.35;;;;;;;17.66;100.00;101476.88;5022461;28;20096;-58
2023/07/14 06:25:06;;;;;;;12.27;8.05;;;;;;;17.84;100.00;101470.94;5011744;28;20493;-53
2023/07/14 06:27:34;;;;;;;14.40;8.48;;;;;;;17.79;100.00;101468.66;5024426;28;20045;-58
2023/07/14 06:30:04;;;;;;;12.13;7.85;;;;;;;17.89;100.00;101468.75;5030964;28;20042;-58
2023/07/14 06:32:32;;;;;;;11.38;7.80;;;;;;;17.87;100.00;101476.00;5014626;28;20053;-60
2023/07/14 06:35:00;;;;;;;12.27;7.57;;;;;;;18.03;100.00;101476.38;5016473;28;20060;-59
2023/07/14 06:37:28;;;;;;;11.35;7.38;;;;;;;18.19;100.00;101475.91;5016275;28;20045;-59
2023/07/14 06:39:57;;;;;;;13.25;7.43;;;;;;;18.24;100.00;101468.34;5023105;28;20037;-59
2023/07/14 06:42:26;;;;;;;9.88;6.53;;;;;;;18.32;100.00;101475.66;5028259;28;20053;-59
2023/07/14 06:44:54;;;;;;;10.57;6.47;;;;;;;18.34;100.00;101478.19;5017187;28;20519;-59
2023/07/14 06:47:22;;;;;;;10.60;6.13;;;;;;;18.44;100.00;101472.91;5007691;28;20053;-59
2023/07/14 06:49:51;;;;;;;11.32;6.35;;;;;;;18.35;100.00;101469.22;5007928;28;20041;-60
2023/07/14 06:52:19;;;;;;;11.07;5.90;;;;;;;18.39;100.00;101468.81;5011432;28;20049;-59
2023/07/14 06:54:47;;;;;;;12.05;5.72;;;;;;;18.52;100.00;101467.72;5016358;28;20041;-59
2023/07/14 06:57:15;;;;;;;9.07;4.75;;;;;;;18.69;100.00;101466.19;5022903;28;20137;-59
2023/07/14 06:59:45;;;;;;;15.60;5.20;;;;;;;18.87;100.00;101463.69;5018110;28;20046;-59
2023/07/14 07:02:20;;;;;;;8.90;5.43;;;;;;;19.04;100.00;101470.19;5013875;28;20054;-60
2023/07/14 07:04:50;;;;;;;12.55;5.70;;;;;;;19.19;100.00;101467.94;5012686;28;20052;-60
2023/07/14 07:07:18;;;;;;;10.43;5.88;;;;;;;19.15;100.00;101470.03;5013283;28;20054;-60
2023/07/14 07:09:47;;;;;;;11.70;5.60;;;;;;;19.37;100.00;101473.41;5010680;28;20514;-61
2023/07/14 07:12:15;;;;;;;9.55;4.95;;;;;;;19.43;100.00;101472.84;5009989;28;20041;-60
2023/07/14 07:14:44;;;;;;;9.55;5.00;;;;;;;19.47;100.00;101466.25;5009201;28;20049;-59
2023/07/14 07:17:13;;;;;;;9.27;4.93;;;;;;;19.54;100.00;101463.84;5010824;28;20042;-59
2023/07/14 07:19:41;;;;;;;12.50;4.50;;;;;;;19.66;100.00;101460.03;5013163;28;20128;-60
2023/07/14 07:22:09;;;;;;;9.15;4.45;;;;;;;19.75;100.00;101463.63;5012803;28;20513;-60
2023/07/14 07:24:39;;;;;;;9.57;4.30;;;;;;;19.96;100.00;101466.13;5009826;28;20052;-59
2023/07/14 07:27:10;;;;;;;9.80;4.45;;;;;;;20.19;100.00;101457.72;5010148;28;20057;-59
2023/07/14 07:29:41;;;;;;;8.07;4.03;;;;;;;20.17;100.00;101449.03;5008903;28;20072;-59
2023/07/14 07:32:11;;;;;;;8.30;3.92;;;;;;;20.26;100.00;101448.97;5011453;28;20080;-59
2023/07/14 07:34:40;;;;;;;9.07;3.85;;;;;;;20.21;100.00;101448.56;4969983;28;1197972;-61
2023/07/14 07:37:10;;;;;;;10.85;4.10;;;;;;;20.41;100.00;101446.66;5011281;28;20064;-59
2023/07/14 07:39:38;;;;;;;8.52;4.07;;;;;;;20.32;100.00;101449.38;5010543;28;20556;-59
2023/07/14 07:42:07;;;;;;;7.78;3.75;;;;;;;20.26;100.00;101446.31;5012921;28;20046;-60
2023/07/14 07:44:36;;;;;;;7.70;3.90;;;;;;;20.39;100.00;101445.09;5012737;28;20049;-60
2023/07/14 07:47:05;;;;;;;7.28;4.30;;;;;;;20.53;100.00;101444.59;5010643;28;20048;-58
2023/07/14 07:49:34;;;;;;;7.32;3.70;;;;;;;20.74;100.00;101436.31;5010343;28;20056;-58
2023/07/14 07:52:03;;;;;;;9.05;4.18;;;;;;;20.95;100.00;101429.81;5010570;28;20068;-61
2023/07/14 07:54:31;;;;;;;17.65;4.57;;;;;;;21.10;100.00;101433.63;5010835;28;20053;-60
2023/07/14 07:56:59;;;;;;;7.07;3.22;;;;;;;21.38;100.00;101424.66;5012289;28;20054;-60
2023/07/14 07:59:27;;;;;;;8.15;3.60;;;;;;;21.47;100.00;101423.69;5010407;28;20412;-58
2023/07/14 08:01:55;;;;;;;11.15;3.50;;;;;;;21.41;100.00;101433.19;5012662;28;20045;-59
2023/07/14 08:04:26;;;;;;;7.78;3.35;;;;;;;21.42;100.00;101426.00;5013606;28;20576;-60
2023/07/14 08:06:56;;;;;;;7.05;2.65;;;;;;;21.63;100.00;101425.66;5010560;28;20100;-60
2023/07/14 08:09:24;;;;;;;7.93;2.92;;;;;;;21.88;100.00;101421.28;5010588;28;20069;-59
2023/07/14 08:11:56;;;;;;;6.85;3.00;;;;;;;22.00;100.00;101419.13;5010167;28;20042;-60
2023/07/14 08:14:24;;;;;;;5.68;2.20;;;;;;;21.99;100.00;101416.63;5010072;28;20444;-60
2023/07/14 08:16:52;;;;;;;6.85;2.72;;;;;;;22.05;100.00;101413.31;5013329;28;20120;-60
2023/07/14 08:19:20;;;;;;;6.05;2.50;;;;;;;22.16;100.00;101417.53;5013442;28;20504;-59
2023/07/14 08:21:48;;;;;;;9.75;2.60;;;;;;;22.17;100.00;101411.16;5010642;28;20367;-60
2023/07/14 08:24:19;;;;;;;9.43;3.22;;;;;;;21.86;100.00;101407.19;5010210;28;20050;-60
2023/07/14 08:26:47;;;;;;;6.60;2.60;;;;;;;22.15;100.00;101405.97;5009890;28;20057;-61
2023/07/14 08:29:15;;;;;;;7.13;2.67;;;;;;;22.36;100.00;101413.59;5010084;28;20046;-60
2023/07/14 08:31:44;;;;;;;8.25;2.80;;;;;;;22.65;100.00;101412.31;5009112;28;20042;-61
2023/07/14 08:34:13;;;;;;;7.28;2.45;;;;;;;22.89;100.00;101419.53;5011241;28;20062;-61
2023/07/14 08:36:41;;;;;;;5.45;2.40;;;;;;;22.92;100.00;101410.31;5020459;28;20703;-62
2023/07/14 08:39:09;;;;;;;7.43;2.05;;;;;;;22.99;100.00;101416.69;5009769;28;20049;-62
2023/07/14 08:41:40;;;;;;;6.13;2.30;;;;;;;23.27;100.00;101419.00;5010370;28;20041;-62
2023/07/14 08:44:28;;;;;;;5.10;2.17;;;;;;;22.75;100.00;101417.50;5010162;28;20057;-60
2023/07/14 08:47:07;;;;;;;4.63;2.15;;;;;;;22.85;100.00;101412.81;5010958;28;20492;-61
2023/07/14 08:49:47;;;;;;;5.82;2.10;;;;;;;22.84;100.00;101410.28;5012087;28;20579;-61
2023/07/14 08:52:22;;;;;;;7.57;2.30;;;;;;;23.02;100.00;101410.13;5013286;28;20038;-61
2023/07/14 08:54:56;;;;;;;6.57;1.95;;;;;;;23.15;100.00;101413.19;5013368;28;20080;-62
2023/07/14 08:57:28;;;;;;;5.90;2.38;;;;;;;23.23;100.00;101412.31;5011885;28;20050;-62
2023/07/14 09:00:01;;;;;;;6.10;2.40;;;;;;;23.41;100.00;101409.44;5009368;28;20052;-61
2023/07/14 09:02:36;;;;;;;7.63;2.60;;;;;;;23.42;100.00;101398.56;5009630;28;20473;-62
2023/07/14 09:05:18;;;;;;;7.47;2.38;;;;;;;23.25;100.00;101411.13;5013182;28;20096;-62
2023/07/14 09:07:46;;;;;;;8.10;2.67;;;;;;;23.52;100.00;101408.22;5013071;28;20464;-61
2023/07/14 09:10:15;;;;;;;5.70;2.13;;;;;;;23.51;100.00;101406.56;5013101;28;20120;-61
2023/07/14 09:12:56;;;;;;;5.95;2.40;;;;;;;23.35;100.00;101404.75;5012787;28;20100;-61
2023/07/14 09:15:30;;;;;;;6.80;2.40;;;;;;;23.57;100.00;101397.81;5012454;28;20042;-61
2023/07/14 09:18:14;;;;;;;8.85;2.78;;;;;;;23.37;100.00;101400.91;5012982;28;20080;-62
2023/07/14 09:21:07;;;;;;;5.85;2.30;;;;;;;23.75;100.00;101390.38;5010810;28;20053;-62
2023/07/14 09:24:08;;;;;;;7.35;2.10;;;;;;;23.95;100.00;101395.34;5008596;28;20146;-62
2023/07/14 09:26:40;;;;;;;5.20;2.22;;;;;;;24.01;100.00;101391.97;5012474;28;20054;-62
2023/07/14 09:29:16;;;;;;;6.33;2.30;;;;;;;23.85;100.00;101386.66;5012694;28;20132;-61
2023/07/14 09:31:53;;;;;;;7.15;2.38;;;;;;;23.92;100.00;101384.97;5008879;28;20481;-61
2023/07/14 09:34:27;;;;;;;7.63;2.35;;;;;;;24.11;100.00;101392.59;5008678;28;20484;-61
2023/07/14 09:36:57;;;;;;;7.43;2.20;;;;;;;24.08;100.00;101382.19;5008938;28;20562;-62
2023/07/14 09:39:31;;;;;;;5.03;1.90;;;;;;;24.43;100.00;101389.88;5008328;28;20415;-62
2023/07/14 09:42:02;;;;;;;6.15;2.28;;;;;;;24.41;100.00;101381.16;5009088;28;20052;-62
2023/07/14 09:44:32;;;;;;;9.23;2.25;;;;;;;24.79;100.00;101384.75;5008819;28;20555;-61
2023/07/14 09:47:02;;;;;;;6.25;2.13;;;;;;;24.68;100.00;101381.66;5012232;28;20137;-61
2023/07/14 09:49:37;;;;;;;5.30;2.22;;;;;;;24.64;99.74;101371.28;5009216;28;20057;-62
2023/07/14 09:52:15;;;;;;;4.50;1.90;;;;;;;24.77;100.00;101375.19;5008747;28;20493;-62
2023/07/14 09:54:52;;;;;;;5.22;2.00;;;;;;;24.76;94.80;101382.44;5007668;28;20060;-62
2023/07/14 09:57:23;;;;;;;6.03;2.25;;;;;;;24.68;96.54;101378.97;5012258;28;20046;-62
2023/07/14 10:00:19;;;;;;;6.70;2.35;;;;;;;24.90;96.31;101370.06;5012157;28;20041;-62
2023/07/14 10:02:51;;;;;;;6.47;2.30;;;;;;;24.55;98.07;101364.25;5012357;28;20049;-63
2023/07/14 10:05:41;;;;;;;5.13;2.15;;;;;;;24.66;99.69;101368.41;5008819;28;20107;-62
2023/07/14 10:08:25;;;;;;;7.25;2.38;;;;;;;24.53;99.39;101362.75;5009491;28;20053;-62
2023/07/14 10:10:57;;;;;;;6.05;2.28;;;;;;;24.68;99.04;101355.63;5024435;28;20053;-62
2023/07/14 10:13:31;;;;;;;7.10;2.25;;;;;;;24.92;94.66;101359.09;5007848;28;20050;-62
2023/07/14 10:16:08;;;;;;;6.15;2.03;;;;;;;24.74;97.84;101348.69;5011062;28;20053;-63
2023/07/14 10:18:49;;;;;;;5.05;1.88;;;;;;;25.09;95.54;101340.97;5006020;28;20042;-62
2023/07/14 10:21:24;;;;;;;7.18;2.40;;;;;;;25.21;95.18;101350.25;5010400;28;20471;-62
2023/07/14 10:24:01;;;;;;;6.75;2.38;;;;;;;25.58;92.62;101350.38;5007821;28;20050;-63
2023/07/14 10:26:33;;;;;;;7.28;2.78;;;;;;;25.00;91.19;101353.66;5008583;28;20083;-62
2023/07/14 10:29:05;;;;;;;6.68;2.50;;;;;;;25.31;91.34;101339.22;5009252;28;20564;-63
2023/07/14 10:31:45;;;;;;;7.53;2.00;;;;;;;25.40;86.96;101332.75;5011977;28;20081;-62
2023/07/14 10:34:29;;;;;;;6.78;2.10;;;;;;;25.71;88.40;101323.59;5011317;28;20108;-64
2023/07/14 10:37:00;;;;;;;7.93;2.38;;;;;;;25.60;83.06;101332.97;5011816;28;20129;-62
2023/07/14 10:39:38;;;;;;;6.45;2.10;;;;;;;25.99;83.65;101320.19;5009817;28;20276;-63
2023/07/14 10:42:12;;;;;;;4.97;2.40;;;;;;;26.12;83.71;101308.75;5008415;28;20101;-62
2023/07/14 10:44:46;;;;;;;5.65;1.98;;;;;;;26.29;82.54;101312.84;5010286;28;20412;-62
2023/07/14 10:47:18;;;;;;;4.90;1.88;;;;;;;26.59;77.72;101310.00;5007467;28;20704;-63
2023/07/14 10:49:54;;;;;;;4.38;1.85;;;;;;;26.44;78.47;101307.38;5007017;28;20050;-63
2023/07/14 10:52:28;;;;;;;5.15;2.40;;;;;;;26.52;73.97;101303.72;5007532;28;20519;-63
2023/07/14 10:55:03;;;;;;;4.97;2.17;;;;;;;26.26;74.44;101307.00;5007408;28;20046;-63
2023/07/14 10:57:47;;;;;;;8.27;2.38;;;;;;;26.16;73.14;101301.94;5007929;28;20057;-63
2023/07/14 11:00:25;;;;;;;7.22;2.75;;;;;;;26.10;75.02;101298.16;5009097;28;20049;-63
2023/07/14 11:03:05;;;;;;;5.20;2.10;;;;;;;26.21;74.19;101299.50;5011366;28;20038;-63
2023/07/14 11:05:34;;;;;;;6.80;2.45;;;;;;;25.91;73.93;101296.06;5011346;28;20078;-62
2023/07/14 11:08:06;;;;;;;4.38;2.00;;;;;;;26.32;73.98;101298.97;5011277;28;20046;-62
2023/07/14 11:10:49;;;;;;;8.27;2.28;;;;;;;25.91;75.53;101302.28;5010319;28;20125;-63
2023/07/14 11:13:27;;;;;;;6.20;2.13;;;;;;;25.81;76.01;101297.19;5007216;28;20050;-62
2023/07/14 11:16:02;;;;;;;5.63;2.00;;;;;;;25.86;76.14;101302.00;5006995;28;20060;-63
2023/07/14 11:18:42;;;;;;;5.30;2.47;;;;;;;25.88;70.74;101299.13;5011392;28;20408;-63
2023/07/14 11:21:32;;;;;;;6.18;1.92;;;;;;;26.00;76.33;101297.63;5011110;28;20046;-63
2023/07/14 11:24:16;;;;;;;6.35;2.33;;;;;;;26.17;75.25;101300.91;5007656;28;20100;-63
2023/07/14 11:27:02;;;;;;;4.88;2.13;;;;;;;25.98;76.65;101292.41;5008182;28;20065;-63
2023/07/14 11:29:39;;;;;;;5.35;2.05;;;;;;;25.89;74.18;101290.88;5011162;28;20052;-64
2023/07/14 11:32:18;;;;;;;6.90;2.20;;;;;;;26.11;74.58;101286.34;5011263;28;20053;-63
2023/07/14 11:34:58;;;;;;;5.35;1.90;;;;;;;26.19;74.98;101288.09;5010785;28;20053;-63